sensor_id;sensor_type;location;lat;lon;timestamp;P1;durP1;ratioP1;P2;durP2;ratioP2
72373;SDS011;60349;64.132;-21.820;2022-12-17T00:01:47;1.85;;;0.10;;
72373;SDS011;60349;64.132;-21.820;2022-12-17T00:04:32;0.82;;;0.00;;
72373;SDS011;60349;64.132;-21.820;2022-12-17T00:07:16;1.48;;;0.00;;
72373;SDS011;60349;64.132;-21.820;2022-12-17T00:10:01;0.40;;;0.00;;
72373;SDS011;60349;64.132;-21.820;2022-12-17T00:12:46;0.53;;;0.00;;
72373;SDS011;60349;64.132;-21.820;2022-12-17T00:15:31;1.17;;;0.08;;
72373;SDS011;60349;64.132;-21.820;2022-12-17T00:18:15;4.88;;;0.10;;
72373;SDS011;60349;64.132;-21.820;2022-12-17T00:21:00;1.55;;;0.32;;
72373;SDS011;60349;64.132;-21.820;2022-12-17T00:23:45;1.95;;;0.00;;
72373;SDS011;60349;64.132;-21.820;2022-12-17T00:26:30;2.95;;;0.00;;
72373;SDS011;60349;64.132;-21.820;2022-12-17T00:29:15;5.88;;;0.10;;
72373;SDS011;60349;64.132;-21.820;2022-12-17T00:32:00;1.13;;;0.00;;
72373;SDS011;60349;64.132;-21.820;2022-12-17T00:34:45;2.65;;;0.00;;
72373;SDS011;60349;64.132;-21.820;2022-12-17T00:37:30;1.05;;;0.00;;
72373;SDS011;60349;64.132;-21.820;2022-12-17T00:40:15;0.20;;;0.00;;
72373;SDS011;60349;64.132;-21.820;2022-12-17T00:43:07;1.38;;;0.00;;
72373;SDS011;60349;64.132;-21.820;2022-12-17T00:45:52;0.15;;;0.00;;
72373;SDS011;60349;64.132;-21.820;2022-12-17T00:48:37;0.47;;;0.00;;
72373;SDS011;60349;64.132;-21.820;2022-12-17T00:51:22;1.05;;;0.00;;
72373;SDS011;60349;64.132;-21.820;2022-12-17T00:54:07;0.73;;;0.00;;
72373;SDS011;60349;64.132;-21.820;2022-12-17T00:56:52;0.10;;;0.00;;
72373;SDS011;60349;64.132;-21.820;2022-12-17T00:59:37;0.10;;;0.00;;
72373;SDS011;60349;64.132;-21.820;2022-12-17T01:02:21;0.38;;;0.00;;
72373;SDS011;60349;64.132;-21.820;2022-12-17T01:05:06;0.17;;;0.00;;
72373;SDS011;60349;64.132;-21.820;2022-12-17T01:07:51;0.52;;;0.00;;
72373;SDS011;60349;64.132;-21.820;2022-12-17T01:10:36;0.30;;;0.00;;
72373;SDS011;60349;64.132;-21.820;2022-12-17T01:13:21;0.30;;;0.00;;
72373;SDS011;60349;64.132;-21.820;2022-12-17T01:16:07;0.17;;;0.00;;
72373;SDS011;60349;64.132;-21.820;2022-12-17T01:18:52;0.00;;;0.00;;
72373;SDS011;60349;64.132;-21.820;2022-12-17T01:21:37;0.20;;;0.00;;
72373;SDS011;60349;64.132;-21.820;2022-12-17T01:24:22;0.25;;;0.00;;
72373;SDS011;60349;64.132;-21.820;2022-12-17T01:27:07;0.75;;;0.00;;
72373;SDS011;60349;64.132;-21.820;2022-12-17T01:29:52;0.00;;;0.00;;
72373;SDS011;60349;64.132;-21.820;2022-12-17T01:32:37;0.03;;;0.00;;
72373;SDS011;60349;64.132;-21.820;2022-12-17T01:35:21;0.63;;;0.00;;
72373;SDS011;60349;64.132;-21.820;2022-12-17T01:38:10;0.57;;;0.00;;
72373;SDS011;60349;64.132;-21.820;2022-12-17T01:40:54;0.08;;;0.00;;
72373;SDS011;60349;64.132;-21.820;2022-12-17T01:43:39;0.57;;;0.00;;
72373;SDS011;60349;64.132;-21.820;2022-12-17T01:46:24;0.07;;;0.00;;
72373;SDS011;60349;64.132;-21.820;2022-12-17T01:51:54;0.10;;;0.00;;
72373;SDS011;60349;64.132;-21.820;2022-12-17T01:57:24;0.00;;;0.00;;
72373;SDS011;60349;64.132;-21.820;2022-12-17T02:00:10;0.10;;;0.00;;
72373;SDS011;60349;64.132;-21.820;2022-12-17T02:02:56;0.20;;;0.00;;
72373;SDS011;60349;64.132;-21.820;2022-12-17T02:06:02;0.10;;;0.00;;
72373;SDS011;60349;64.132;-21.820;2022-12-17T02:12:02;0.00;;;0.00;;
72373;SDS011;60349;64.132;-21.820;2022-12-17T02:14:54;0.43;;;0.00;;
72373;SDS011;60349;64.132;-21.820;2022-12-17T02:17:56;0.80;;;0.00;;
72373;SDS011;60349;64.132;-21.820;2022-12-17T02:20:49;1.55;;;0.00;;
72373;SDS011;60349;64.132;-21.820;2022-12-17T02:29:16;0.70;;;0.00;;
72373;SDS011;60349;64.132;-21.820;2022-12-17T02:32:01;0.22;;;0.00;;
72373;SDS011;60349;64.132;-21.820;2022-12-17T02:34:59;0.40;;;0.00;;
72373;SDS011;60349;64.132;-21.820;2022-12-17T02:37:48;0.30;;;0.00;;
72373;SDS011;60349;64.132;-21.820;2022-12-17T02:40:33;0.10;;;0.00;;
72373;SDS011;60349;64.132;-21.820;2022-12-17T02:43:33;0.10;;;0.00;;
72373;SDS011;60349;64.132;-21.820;2022-12-17T02:46:18;0.43;;;0.00;;
72373;SDS011;60349;64.132;-21.820;2022-12-17T02:51:48;0.00;;;0.00;;
72373;SDS011;60349;64.132;-21.820;2022-12-17T02:54:33;0.05;;;0.00;;
72373;SDS011;60349;64.132;-21.820;2022-12-17T02:57:18;0.20;;;0.00;;
72373;SDS011;60349;64.132;-21.820;2022-12-17T03:00:04;0.00;;;0.00;;
72373;SDS011;60349;64.132;-21.820;2022-12-17T03:05:34;0.30;;;0.00;;
72373;SDS011;60349;64.132;-21.820;2022-12-17T03:08:19;0.10;;;0.00;;
72373;SDS011;60349;64.132;-21.820;2022-12-17T03:11:03;0.00;;;0.00;;
72373;SDS011;60349;64.132;-21.820;2022-12-17T03:13:48;0.20;;;0.00;;
72373;SDS011;60349;64.132;-21.820;2022-12-17T03:16:33;0.00;;;0.00;;
72373;SDS011;60349;64.132;-21.820;2022-12-17T03:19:17;0.00;;;0.00;;
72373;SDS011;60349;64.132;-21.820;2022-12-17T03:22:02;3.90;;;0.00;;
72373;SDS011;60349;64.132;-21.820;2022-12-17T03:24:46;0.00;;;0.00;;
72373;SDS011;60349;64.132;-21.820;2022-12-17T03:27:31;0.33;;;0.03;;
72373;SDS011;60349;64.132;-21.820;2022-12-17T03:30:15;0.32;;;0.00;;
72373;SDS011;60349;64.132;-21.820;2022-12-17T03:33:00;0.35;;;0.00;;
72373;SDS011;60349;64.132;-21.820;2022-12-17T03:35:45;0.00;;;0.00;;
72373;SDS011;60349;64.132;-21.820;2022-12-17T03:38:29;0.20;;;0.00;;
72373;SDS011;60349;64.132;-21.820;2022-12-17T03:41:14;0.00;;;0.00;;
72373;SDS011;60349;64.132;-21.820;2022-12-17T03:43:59;0.00;;;0.00;;
72373;SDS011;60349;64.132;-21.820;2022-12-17T03:46:43;1.02;;;0.00;;
72373;SDS011;60349;64.132;-21.820;2022-12-17T03:49:28;0.13;;;0.00;;
72373;SDS011;60349;64.132;-21.820;2022-12-17T03:52:12;0.00;;;0.00;;
72373;SDS011;60349;64.132;-21.820;2022-12-17T03:54:57;0.63;;;0.00;;
72373;SDS011;60349;64.132;-21.820;2022-12-17T03:57:41;0.00;;;0.00;;
72373;SDS011;60349;64.132;-21.820;2022-12-17T04:00:26;0.67;;;0.00;;
72373;SDS011;60349;64.132;-21.820;2022-12-17T04:03:11;0.33;;;0.00;;
72373;SDS011;60349;64.132;-21.820;2022-12-17T04:05:55;0.30;;;0.00;;
72373;SDS011;60349;64.132;-21.820;2022-12-17T04:08:40;0.00;;;0.00;;
72373;SDS011;60349;64.132;-21.820;2022-12-17T04:11:24;0.20;;;0.00;;
72373;SDS011;60349;64.132;-21.820;2022-12-17T04:14:09;0.30;;;0.00;;
72373;SDS011;60349;64.132;-21.820;2022-12-17T04:16:54;0.67;;;0.00;;
72373;SDS011;60349;64.132;-21.820;2022-12-17T04:19:38;0.10;;;0.00;;
72373;SDS011;60349;64.132;-21.820;2022-12-17T04:22:23;0.00;;;0.00;;
72373;SDS011;60349;64.132;-21.820;2022-12-17T04:25:08;0.00;;;0.00;;
72373;SDS011;60349;64.132;-21.820;2022-12-17T04:27:52;0.00;;;0.00;;
72373;SDS011;60349;64.132;-21.820;2022-12-17T04:30:37;0.17;;;0.00;;
72373;SDS011;60349;64.132;-21.820;2022-12-17T04:33:22;0.00;;;0.00;;
72373;SDS011;60349;64.132;-21.820;2022-12-17T04:36:07;0.30;;;0.00;;
72373;SDS011;60349;64.132;-21.820;2022-12-17T04:38:51;0.03;;;0.00;;
72373;SDS011;60349;64.132;-21.820;2022-12-17T04:41:36;0.57;;;0.00;;
72373;SDS011;60349;64.132;-21.820;2022-12-17T04:44:21;4.30;;;0.00;;
72373;SDS011;60349;64.132;-21.820;2022-12-17T04:47:05;0.00;;;0.00;;
72373;SDS011;60349;64.132;-21.820;2022-12-17T04:49:50;0.30;;;0.00;;
72373;SDS011;60349;64.132;-21.820;2022-12-17T04:52:34;0.10;;;0.00;;
72373;SDS011;60349;64.132;-21.820;2022-12-17T04:55:19;0.00;;;0.00;;
72373;SDS011;60349;64.132;-21.820;2022-12-17T04:58:05;0.00;;;0.00;;
72373;SDS011;60349;64.132;-21.820;2022-12-17T05:03:35;0.00;;;0.00;;
72373;SDS011;60349;64.132;-21.820;2022-12-17T05:06:19;0.00;;;0.00;;
72373;SDS011;60349;64.132;-21.820;2022-12-17T05:09:04;0.00;;;0.00;;
72373;SDS011;60349;64.132;-21.820;2022-12-17T05:11:49;0.00;;;0.00;;
72373;SDS011;60349;64.132;-21.820;2022-12-17T05:14:33;5.95;;;0.00;;
72373;SDS011;60349;64.132;-21.820;2022-12-17T05:17:18;0.07;;;0.00;;
72373;SDS011;60349;64.132;-21.820;2022-12-17T05:20:03;0.00;;;0.00;;
72373;SDS011;60349;64.132;-21.820;2022-12-17T05:22:48;0.00;;;0.00;;
72373;SDS011;60349;64.132;-21.820;2022-12-17T05:25:32;0.00;;;0.00;;
72373;SDS011;60349;64.132;-21.820;2022-12-17T05:28:17;0.10;;;0.00;;
72373;SDS011;60349;64.132;-21.820;2022-12-17T05:31:02;0.47;;;0.00;;
72373;SDS011;60349;64.132;-21.820;2022-12-17T05:33:46;0.00;;;0.00;;
72373;SDS011;60349;64.132;-21.820;2022-12-17T05:36:31;0.00;;;0.00;;
72373;SDS011;60349;64.132;-21.820;2022-12-17T05:39:35;0.43;;;0.00;;
72373;SDS011;60349;64.132;-21.820;2022-12-17T05:42:20;0.17;;;0.00;;
72373;SDS011;60349;64.132;-21.820;2022-12-17T05:45:05;0.00;;;0.00;;
72373;SDS011;60349;64.132;-21.820;2022-12-17T05:47:49;0.05;;;0.00;;
72373;SDS011;60349;64.132;-21.820;2022-12-17T05:50:34;0.37;;;0.00;;
72373;SDS011;60349;64.132;-21.820;2022-12-17T05:53:19;0.40;;;0.00;;
72373;SDS011;60349;64.132;-21.820;2022-12-17T05:56:03;0.00;;;0.00;;
72373;SDS011;60349;64.132;-21.820;2022-12-17T05:58:48;0.00;;;0.00;;
72373;SDS011;60349;64.132;-21.820;2022-12-17T06:01:32;0.00;;;0.00;;
72373;SDS011;60349;64.132;-21.820;2022-12-17T06:04:17;0.00;;;0.00;;
72373;SDS011;60349;64.132;-21.820;2022-12-17T06:07:01;0.00;;;0.00;;
72373;SDS011;60349;64.132;-21.820;2022-12-17T06:09:46;0.00;;;0.00;;
72373;SDS011;60349;64.132;-21.820;2022-12-17T06:12:31;0.00;;;0.00;;
72373;SDS011;60349;64.132;-21.820;2022-12-17T06:15:15;0.10;;;0.00;;
72373;SDS011;60349;64.132;-21.820;2022-12-17T06:18:00;0.08;;;0.00;;
72373;SDS011;60349;64.132;-21.820;2022-12-17T06:20:45;0.00;;;0.00;;
72373;SDS011;60349;64.132;-21.820;2022-12-17T06:23:29;0.08;;;0.00;;
72373;SDS011;60349;64.132;-21.820;2022-12-17T06:26:14;0.00;;;0.00;;
72373;SDS011;60349;64.132;-21.820;2022-12-17T06:28:58;0.00;;;0.00;;
72373;SDS011;60349;64.132;-21.820;2022-12-17T06:31:43;0.00;;;0.00;;
72373;SDS011;60349;64.132;-21.820;2022-12-17T06:34:28;0.00;;;0.00;;
72373;SDS011;60349;64.132;-21.820;2022-12-17T06:37:12;0.45;;;0.00;;
72373;SDS011;60349;64.132;-21.820;2022-12-17T06:39:57;0.10;;;0.00;;
72373;SDS011;60349;64.132;-21.820;2022-12-17T06:42:50;0.20;;;0.10;;
72373;SDS011;60349;64.132;-21.820;2022-12-17T06:45:35;0.20;;;0.00;;
72373;SDS011;60349;64.132;-21.820;2022-12-17T06:48:20;0.00;;;0.00;;
72373;SDS011;60349;64.132;-21.820;2022-12-17T06:51:04;0.00;;;0.00;;
72373;SDS011;60349;64.132;-21.820;2022-12-17T06:53:49;0.00;;;0.00;;
72373;SDS011;60349;64.132;-21.820;2022-12-17T06:56:33;0.00;;;0.00;;
72373;SDS011;60349;64.132;-21.820;2022-12-17T06:59:18;0.10;;;0.00;;
72373;SDS011;60349;64.132;-21.820;2022-12-17T07:02:08;0.00;;;0.00;;
72373;SDS011;60349;64.132;-21.820;2022-12-17T07:04:53;5.10;;;0.00;;
72373;SDS011;60349;64.132;-21.820;2022-12-17T07:07:38;0.00;;;0.00;;
72373;SDS011;60349;64.132;-21.820;2022-12-17T07:10:23;0.00;;;0.00;;
72373;SDS011;60349;64.132;-21.820;2022-12-17T07:13:08;0.00;;;0.00;;
72373;SDS011;60349;64.132;-21.820;2022-12-17T07:15:53;4.43;;;0.00;;
72373;SDS011;60349;64.132;-21.820;2022-12-17T07:18:38;0.05;;;0.00;;
72373;SDS011;60349;64.132;-21.820;2022-12-17T07:21:24;0.75;;;0.00;;
72373;SDS011;60349;64.132;-21.820;2022-12-17T07:24:08;0.00;;;0.00;;
72373;SDS011;60349;64.132;-21.820;2022-12-17T07:26:53;0.00;;;0.00;;
72373;SDS011;60349;64.132;-21.820;2022-12-17T07:29:38;0.10;;;0.00;;
72373;SDS011;60349;64.132;-21.820;2022-12-17T07:32:23;0.00;;;0.00;;
72373;SDS011;60349;64.132;-21.820;2022-12-17T07:35:07;0.15;;;0.00;;
72373;SDS011;60349;64.132;-21.820;2022-12-17T07:37:59;0.25;;;0.00;;
72373;SDS011;60349;64.132;-21.820;2022-12-17T07:40:44;0.00;;;0.00;;
72373;SDS011;60349;64.132;-21.820;2022-12-17T07:43:29;0.20;;;0.00;;
72373;SDS011;60349;64.132;-21.820;2022-12-17T07:46:13;0.93;;;0.00;;
72373;SDS011;60349;64.132;-21.820;2022-12-17T07:48:58;0.00;;;0.00;;
72373;SDS011;60349;64.132;-21.820;2022-12-17T07:51:43;0.00;;;0.00;;
72373;SDS011;60349;64.132;-21.820;2022-12-17T07:54:27;0.17;;;0.00;;
72373;SDS011;60349;64.132;-21.820;2022-12-17T07:57:12;0.33;;;0.00;;
72373;SDS011;60349;64.132;-21.820;2022-12-17T07:59:57;2.10;;;0.00;;
72373;SDS011;60349;64.132;-21.820;2022-12-17T08:02:42;1.63;;;0.00;;
72373;SDS011;60349;64.132;-21.820;2022-12-17T08:05:26;0.33;;;0.00;;
72373;SDS011;60349;64.132;-21.820;2022-12-17T08:08:12;0.87;;;0.00;;
72373;SDS011;60349;64.132;-21.820;2022-12-17T08:10:57;1.00;;;0.00;;
72373;SDS011;60349;64.132;-21.820;2022-12-17T08:13:42;0.08;;;0.00;;
72373;SDS011;60349;64.132;-21.820;2022-12-17T08:16:26;1.08;;;0.00;;
72373;SDS011;60349;64.132;-21.820;2022-12-17T08:19:12;1.27;;;0.00;;
72373;SDS011;60349;64.132;-21.820;2022-12-17T08:21:57;0.63;;;0.00;;
72373;SDS011;60349;64.132;-21.820;2022-12-17T08:24:42;0.00;;;0.00;;
72373;SDS011;60349;64.132;-21.820;2022-12-17T08:27:26;0.28;;;0.00;;
72373;SDS011;60349;64.132;-21.820;2022-12-17T08:30:11;0.55;;;0.00;;
72373;SDS011;60349;64.132;-21.820;2022-12-17T08:33:00;0.00;;;0.00;;
72373;SDS011;60349;64.132;-21.820;2022-12-17T08:35:49;2.95;;;0.00;;
72373;SDS011;60349;64.132;-21.820;2022-12-17T08:38:34;0.10;;;0.00;;
72373;SDS011;60349;64.132;-21.820;2022-12-17T08:41:19;1.55;;;0.00;;
72373;SDS011;60349;64.132;-21.820;2022-12-17T08:44:03;0.10;;;0.00;;
72373;SDS011;60349;64.132;-21.820;2022-12-17T08:46:48;0.17;;;0.00;;
72373;SDS011;60349;64.132;-21.820;2022-12-17T08:49:33;0.00;;;0.00;;
72373;SDS011;60349;64.132;-21.820;2022-12-17T08:52:17;0.35;;;0.00;;
72373;SDS011;60349;64.132;-21.820;2022-12-17T08:55:02;0.52;;;0.00;;
72373;SDS011;60349;64.132;-21.820;2022-12-17T08:57:54;0.10;;;0.00;;
72373;SDS011;60349;64.132;-21.820;2022-12-17T09:00:39;0.98;;;0.00;;
72373;SDS011;60349;64.132;-21.820;2022-12-17T09:03:24;0.15;;;0.00;;
72373;SDS011;60349;64.132;-21.820;2022-12-17T09:06:09;1.98;;;0.00;;
72373;SDS011;60349;64.132;-21.820;2022-12-17T09:11:39;0.15;;;0.00;;
72373;SDS011;60349;64.132;-21.820;2022-12-17T09:17:09;1.40;;;0.00;;
72373;SDS011;60349;64.132;-21.820;2022-12-17T09:19:53;4.37;;;0.00;;
72373;SDS011;60349;64.132;-21.820;2022-12-17T09:22:38;10.52;;;2.33;;
72373;SDS011;60349;64.132;-21.820;2022-12-17T09:25:23;11.53;;;1.23;;
72373;SDS011;60349;64.132;-21.820;2022-12-17T09:28:07;8.07;;;2.15;;
72373;SDS011;60349;64.132;-21.820;2022-12-17T09:30:58;8.10;;;2.60;;
72373;SDS011;60349;64.132;-21.820;2022-12-17T09:33:43;9.23;;;3.42;;
72373;SDS011;60349;64.132;-21.820;2022-12-17T09:36:28;16.42;;;6.93;;
72373;SDS011;60349;64.132;-21.820;2022-12-17T09:39:13;21.77;;;10.43;;
72373;SDS011;60349;64.132;-21.820;2022-12-17T09:42:01;28.70;;;12.10;;
72373;SDS011;60349;64.132;-21.820;2022-12-17T09:47:36;24.52;;;10.43;;
72373;SDS011;60349;64.132;-21.820;2022-12-17T09:50:23;21.02;;;9.40;;
72373;SDS011;60349;64.132;-21.820;2022-12-17T09:53:15;20.45;;;9.68;;
72373;SDS011;60349;64.132;-21.820;2022-12-17T09:56:01;21.75;;;8.90;;
72373;SDS011;60349;64.132;-21.820;2022-12-17T09:58:47;23.25;;;10.90;;
72373;SDS011;60349;64.132;-21.820;2022-12-17T10:01:32;22.75;;;10.57;;
72373;SDS011;60349;64.132;-21.820;2022-12-17T10:04:37;25.55;;;11.45;;
72373;SDS011;60349;64.132;-21.820;2022-12-17T10:07:24;27.80;;;11.57;;
72373;SDS011;60349;64.132;-21.820;2022-12-17T10:10:20;16.00;;;7.60;;
72373;SDS011;60349;64.132;-21.820;2022-12-17T10:13:26;22.05;;;8.82;;
72373;SDS011;60349;64.132;-21.820;2022-12-17T10:16:30;19.92;;;7.97;;
72373;SDS011;60349;64.132;-21.820;2022-12-17T10:22:12;12.45;;;5.72;;
72373;SDS011;60349;64.132;-21.820;2022-12-17T10:25:00;11.23;;;4.78;;
72373;SDS011;60349;64.132;-21.820;2022-12-17T10:27:45;10.88;;;3.95;;
72373;SDS011;60349;64.132;-21.820;2022-12-17T10:30:30;13.63;;;6.25;;
72373;SDS011;60349;64.132;-21.820;2022-12-17T10:33:18;10.38;;;4.50;;
72373;SDS011;60349;64.132;-21.820;2022-12-17T10:36:04;8.63;;;3.53;;
72373;SDS011;60349;64.132;-21.820;2022-12-17T10:39:03;7.60;;;3.35;;
72373;SDS011;60349;64.132;-21.820;2022-12-17T10:41:48;8.95;;;3.05;;
72373;SDS011;60349;64.132;-21.820;2022-12-17T10:44:33;8.52;;;3.40;;
72373;SDS011;60349;64.132;-21.820;2022-12-17T10:50:05;8.68;;;3.13;;
72373;SDS011;60349;64.132;-21.820;2022-12-17T10:52:50;6.32;;;2.58;;
72373;SDS011;60349;64.132;-21.820;2022-12-17T10:55:35;6.78;;;2.88;;
72373;SDS011;60349;64.132;-21.820;2022-12-17T10:58:20;6.33;;;2.43;;
72373;SDS011;60349;64.132;-21.820;2022-12-17T11:01:10;7.53;;;2.38;;
72373;SDS011;60349;64.132;-21.820;2022-12-17T11:03:56;8.15;;;2.17;;
72373;SDS011;60349;64.132;-21.820;2022-12-17T11:06:48;6.65;;;2.22;;
72373;SDS011;60349;64.132;-21.820;2022-12-17T11:09:36;6.03;;;2.20;;
72373;SDS011;60349;64.132;-21.820;2022-12-17T11:12:24;5.15;;;1.50;;
72373;SDS011;60349;64.132;-21.820;2022-12-17T11:15:24;4.60;;;1.02;;
72373;SDS011;60349;64.132;-21.820;2022-12-17T11:18:12;4.82;;;1.60;;
72373;SDS011;60349;64.132;-21.820;2022-12-17T11:21:16;2.75;;;0.80;;
72373;SDS011;60349;64.132;-21.820;2022-12-17T11:24:03;3.03;;;0.80;;
72373;SDS011;60349;64.132;-21.820;2022-12-17T11:26:49;2.42;;;0.52;;
72373;SDS011;60349;64.132;-21.820;2022-12-17T11:29:35;2.88;;;0.55;;
72373;SDS011;60349;64.132;-21.820;2022-12-17T11:41:01;5.40;;;0.50;;
72373;SDS011;60349;64.132;-21.820;2022-12-17T11:43:50;2.35;;;0.60;;
72373;SDS011;60349;64.132;-21.820;2022-12-17T11:46:53;2.05;;;0.35;;
72373;SDS011;60349;64.132;-21.820;2022-12-17T11:53:16;3.92;;;0.40;;
72373;SDS011;60349;64.132;-21.820;2022-12-17T11:56:04;1.83;;;0.40;;
72373;SDS011;60349;64.132;-21.820;2022-12-17T11:58:53;2.72;;;0.40;;
72373;SDS011;60349;64.132;-21.820;2022-12-17T12:10:10;1.60;;;0.15;;
72373;SDS011;60349;64.132;-21.820;2022-12-17T12:13:02;2.72;;;0.20;;
72373;SDS011;60349;64.132;-21.820;2022-12-17T12:15:55;1.42;;;0.25;;
72373;SDS011;60349;64.132;-21.820;2022-12-17T12:18:58;1.33;;;0.10;;
72373;SDS011;60349;64.132;-21.820;2022-12-17T12:21:54;1.85;;;0.20;;
72373;SDS011;60349;64.132;-21.820;2022-12-17T12:24:59;10.02;;;2.38;;
72373;SDS011;60349;64.132;-21.820;2022-12-17T12:30:59;55.33;;;22.15;;
72373;SDS011;60349;64.132;-21.820;2022-12-17T12:36:30;61.63;;;23.45;;
72373;SDS011;60349;64.132;-21.820;2022-12-17T12:39:17;53.88;;;21.60;;
72373;SDS011;60349;64.132;-21.820;2022-12-17T12:42:08;50.35;;;20.65;;
72373;SDS011;60349;64.132;-21.820;2022-12-17T12:45:02;55.20;;;21.13;;
72373;SDS011;60349;64.132;-21.820;2022-12-17T12:50:40;46.20;;;18.63;;
72373;SDS011;60349;64.132;-21.820;2022-12-17T12:53:27;50.95;;;18.75;;
72373;SDS011;60349;64.132;-21.820;2022-12-17T12:59:10;28.70;;;10.55;;
72373;SDS011;60349;64.132;-21.820;2022-12-17T13:01:55;29.33;;;12.07;;
72373;SDS011;60349;64.132;-21.820;2022-12-17T13:04:39;30.93;;;10.90;;
72373;SDS011;60349;64.132;-21.820;2022-12-17T13:07:39;25.75;;;9.27;;
72373;SDS011;60349;64.132;-21.820;2022-12-17T13:10:15;27.52;;;9.82;;
72373;SDS011;60349;64.132;-21.820;2022-12-17T13:12:44;25.13;;;9.43;;
72373;SDS011;60349;64.132;-21.820;2022-12-17T13:15:23;25.27;;;9.88;;
72373;SDS011;60349;64.132;-21.820;2022-12-17T13:18:34;26.05;;;9.40;;
72373;SDS011;60349;64.132;-21.820;2022-12-17T13:20:40;21.35;;;6.88;;
72373;SDS011;60349;64.132;-21.820;2022-12-17T13:23:15;24.80;;;8.05;;
72373;SDS011;60349;64.132;-21.820;2022-12-17T13:25:41;19.20;;;7.15;;
72373;SDS011;60349;64.132;-21.820;2022-12-17T13:28:24;19.33;;;6.90;;
72373;SDS011;60349;64.132;-21.820;2022-12-17T13:30:59;19.38;;;7.28;;
72373;SDS011;60349;64.132;-21.820;2022-12-17T13:38:39;17.27;;;5.78;;
72373;SDS011;60349;64.132;-21.820;2022-12-17T13:44:00;15.98;;;6.15;;
72373;SDS011;60349;64.132;-21.820;2022-12-17T13:46:25;12.65;;;4.20;;
72373;SDS011;60349;64.132;-21.820;2022-12-17T13:49:01;10.02;;;3.20;;
72373;SDS011;60349;64.132;-21.820;2022-12-17T13:51:29;10.27;;;3.33;;
72373;SDS011;60349;64.132;-21.820;2022-12-17T13:53:59;7.95;;;2.28;;
72373;SDS011;60349;64.132;-21.820;2022-12-17T13:56:33;9.40;;;2.53;;
72373;SDS011;60349;64.132;-21.820;2022-12-17T13:59:00;5.85;;;1.73;;
72373;SDS011;60349;64.132;-21.820;2022-12-17T14:01:27;7.22;;;2.10;;
72373;SDS011;60349;64.132;-21.820;2022-12-17T14:03:59;6.60;;;2.00;;
72373;SDS011;60349;64.132;-21.820;2022-12-17T14:06:31;7.63;;;1.75;;
72373;SDS011;60349;64.132;-21.820;2022-12-17T14:08:59;8.05;;;1.92;;
72373;SDS011;60349;64.132;-21.820;2022-12-17T14:11:26;5.90;;;1.45;;
72373;SDS011;60349;64.132;-21.820;2022-12-17T14:14:17;7.07;;;1.73;;
72373;SDS011;60349;64.132;-21.820;2022-12-17T14:16:45;6.03;;;1.27;;
72373;SDS011;60349;64.132;-21.820;2022-12-17T14:19:11;6.63;;;1.30;;
72373;SDS011;60349;64.132;-21.820;2022-12-17T14:21:37;5.53;;;1.40;;
72373;SDS011;60349;64.132;-21.820;2022-12-17T14:24:05;4.43;;;0.80;;
72373;SDS011;60349;64.132;-21.820;2022-12-17T14:26:31;6.13;;;1.00;;
72373;SDS011;60349;64.132;-21.820;2022-12-17T14:28:57;3.58;;;0.75;;
72373;SDS011;60349;64.132;-21.820;2022-12-17T14:31:24;4.45;;;0.93;;
72373;SDS011;60349;64.132;-21.820;2022-12-17T14:34:04;4.95;;;0.73;;
72373;SDS011;60349;64.132;-21.820;2022-12-17T14:36:38;3.30;;;0.40;;
72373;SDS011;60349;64.132;-21.820;2022-12-17T14:39:14;4.63;;;0.90;;
72373;SDS011;60349;64.132;-21.820;2022-12-17T14:41:41;4.43;;;0.85;;
72373;SDS011;60349;64.132;-21.820;2022-12-17T14:44:27;2.20;;;0.32;;
72373;SDS011;60349;64.132;-21.820;2022-12-17T14:47:05;3.88;;;0.50;;
72373;SDS011;60349;64.132;-21.820;2022-12-17T14:49:32;3.35;;;0.40;;
72373;SDS011;60349;64.132;-21.820;2022-12-17T14:51:58;3.25;;;0.30;;
72373;SDS011;60349;64.132;-21.820;2022-12-17T14:54:28;2.72;;;0.22;;
72373;SDS011;60349;64.132;-21.820;2022-12-17T14:56:56;2.38;;;0.40;;
72373;SDS011;60349;64.132;-21.820;2022-12-17T14:59:23;1.55;;;0.20;;
72373;SDS011;60349;64.132;-21.820;2022-12-17T15:01:50;2.58;;;0.32;;
72373;SDS011;60349;64.132;-21.820;2022-12-17T15:04:16;2.97;;;0.30;;
72373;SDS011;60349;64.132;-21.820;2022-12-17T15:06:42;2.47;;;0.20;;
72373;SDS011;60349;64.132;-21.820;2022-12-17T15:09:09;3.35;;;0.55;;
72373;SDS011;60349;64.132;-21.820;2022-12-17T15:11:36;1.50;;;0.20;;
72373;SDS011;60349;64.132;-21.820;2022-12-17T15:14:02;1.35;;;0.10;;
72373;SDS011;60349;64.132;-21.820;2022-12-17T15:16:28;2.35;;;0.20;;
72373;SDS011;60349;64.132;-21.820;2022-12-17T15:18:55;1.17;;;0.15;;
72373;SDS011;60349;64.132;-21.820;2022-12-17T15:21:21;2.20;;;0.10;;
72373;SDS011;60349;64.132;-21.820;2022-12-17T15:23:48;0.95;;;0.10;;
72373;SDS011;60349;64.132;-21.820;2022-12-17T15:26:14;1.88;;;0.10;;
72373;SDS011;60349;64.132;-21.820;2022-12-17T15:28:41;0.80;;;0.10;;
72373;SDS011;60349;64.132;-21.820;2022-12-17T15:31:08;1.33;;;0.10;;
72373;SDS011;60349;64.132;-21.820;2022-12-17T15:33:36;2.53;;;0.10;;
72373;SDS011;60349;64.132;-21.820;2022-12-17T15:36:02;1.27;;;0.28;;
72373;SDS011;60349;64.132;-21.820;2022-12-17T15:38:28;2.13;;;0.10;;
72373;SDS011;60349;64.132;-21.820;2022-12-17T15:40:54;1.23;;;0.10;;
72373;SDS011;60349;64.132;-21.820;2022-12-17T15:43:21;1.33;;;0.10;;
72373;SDS011;60349;64.132;-21.820;2022-12-17T15:45:48;1.02;;;0.10;;
72373;SDS011;60349;64.132;-21.820;2022-12-17T15:48:19;1.65;;;0.10;;
72373;SDS011;60349;64.132;-21.820;2022-12-17T15:50:45;2.38;;;0.20;;
72373;SDS011;60349;64.132;-21.820;2022-12-17T15:53:12;0.98;;;0.03;;
72373;SDS011;60349;64.132;-21.820;2022-12-17T15:55:38;2.22;;;0.10;;
72373;SDS011;60349;64.132;-21.820;2022-12-17T15:58:05;0.68;;;0.00;;
72373;SDS011;60349;64.132;-21.820;2022-12-17T16:00:31;1.17;;;0.10;;
72373;SDS011;60349;64.132;-21.820;2022-12-17T16:02:58;2.15;;;0.10;;
72373;SDS011;60349;64.132;-21.820;2022-12-17T16:05:24;0.57;;;0.00;;
72373;SDS011;60349;64.132;-21.820;2022-12-17T16:07:50;1.10;;;0.10;;
72373;SDS011;60349;64.132;-21.820;2022-12-17T16:10:16;0.35;;;0.00;;
72373;SDS011;60349;64.132;-21.820;2022-12-17T16:12:43;0.95;;;0.00;;
72373;SDS011;60349;64.132;-21.820;2022-12-17T16:15:10;0.47;;;0.00;;
72373;SDS011;60349;64.132;-21.820;2022-12-17T16:17:36;0.65;;;0.00;;
72373;SDS011;60349;64.132;-21.820;2022-12-17T16:20:03;1.88;;;0.25;;
72373;SDS011;60349;64.132;-21.820;2022-12-17T16:22:29;8.50;;;2.40;;
72373;SDS011;60349;64.132;-21.820;2022-12-17T16:24:55;11.02;;;3.70;;
72373;SDS011;60349;64.132;-21.820;2022-12-17T16:27:22;8.70;;;2.42;;
72373;SDS011;60349;64.132;-21.820;2022-12-17T16:29:48;9.20;;;2.65;;
72373;SDS011;60349;64.132;-21.820;2022-12-17T16:32:14;9.52;;;2.28;;
72373;SDS011;60349;64.132;-21.820;2022-12-17T16:34:41;9.80;;;1.98;;
72373;SDS011;60349;64.132;-21.820;2022-12-17T16:37:08;6.47;;;1.40;;
72373;SDS011;60349;64.132;-21.820;2022-12-17T16:39:34;6.53;;;1.70;;
72373;SDS011;60349;64.132;-21.820;2022-12-17T16:42:00;5.63;;;1.08;;
72373;SDS011;60349;64.132;-21.820;2022-12-17T16:44:26;3.00;;;0.55;;
72373;SDS011;60349;64.132;-21.820;2022-12-17T16:46:52;6.10;;;0.98;;
72373;SDS011;60349;64.132;-21.820;2022-12-17T16:49:19;6.72;;;0.60;;
72373;SDS011;60349;64.132;-21.820;2022-12-17T16:51:47;5.22;;;1.02;;
72373;SDS011;60349;64.132;-21.820;2022-12-17T16:54:14;6.57;;;0.93;;
72373;SDS011;60349;64.132;-21.820;2022-12-17T16:56:41;3.17;;;0.93;;
72373;SDS011;60349;64.132;-21.820;2022-12-17T16:59:08;3.15;;;0.30;;
72373;SDS011;60349;64.132;-21.820;2022-12-17T17:01:34;2.53;;;0.50;;